Flight Track Log - Related Links

Times and Time Zones

All times are in EDT time to prevent confusion due to time zone crossing. See the ASQ6115 flight status page for this flight to view local times or setup timezone preferences in your user account.


Time Position Orientation Groundspeed Altitude Reporting Facility
EDT Latitude Longitude Course Direction KTS MPH feet Rate Location/Type
Thu 03:47:06 PM 26.1700 -98.1878 73° East 203 234 2,200  Level Houston Center
Thu 03:48:07 PM 26.2236 -98.1367 41° Northeast 267 307 4,000 1,916 Climbing Houston Center
Thu 03:49:00 PM 26.3661 -98.1369 20° North  Level FlightAware Approximate
Thu 03:49:05 PM 26.2808 -98.0806 41° Northeast 268 308 6,000  Level Houston Center
Thu 03:50:00 PM 26.4339 -98.1081 24° Northeast  Level FlightAware Approximate
Thu 03:50:08 PM 26.3403 -98.0214 42° Northeast 282 325 8,000  Level Houston Center
Thu 03:51:00 PM 26.5000 -98.0750 24° Northeast  Level FlightAware Approximate
Thu 03:51:10 PM 26.4058 -97.9569 41° Northeast 290 334 10,200  Level Houston Center
Thu 03:52:12 PM 26.4750 -97.8964 38° Northeast 315 362 11,100 919 Climbing Houston Center
Thu 03:53:14 PM 26.5672 -97.8422 28° Northeast 346 398 12,100 919 Climbing Houston Center
Thu 03:54:16 PM 26.6583 -97.7883 28° Northeast 367 422 13,000 968 Climbing Houston Center
Thu 03:55:18 PM 26.7464 -97.7278 32° Northeast 370 426 14,100 1,161 Climbing Houston Center
Thu 03:56:20 PM 26.8425 -97.6653 30° Northeast 378 435 15,400 1,113 Climbing Houston Center
Thu 03:57:22 PM 26.9328 -97.6078 30° Northeast 373 429 16,400 960 Climbing Houston Center
Thu 03:58:25 PM 27.0347 -97.5506 27° Northeast 395 455 17,400 912 Climbing Houston Center
Thu 03:59:27 PM 27.1408 -97.5358 North 401 461 18,300 871 Climbing Houston Center
Thu 04:00:29 PM 27.2481 -97.5233 North 374 430 19,200 919 Climbing Houston Center
Thu 04:01:31 PM 27.3578 -97.5097 North 389 448 20,200 919 Climbing Houston Center
Thu 04:02:33 PM 27.4664 -97.4961 North 392 451 21,100 919 Climbing Houston Center
Thu 04:03:35 PM 27.5758 -97.4839 North 394 453 22,100 1,016 Climbing Houston Center
Thu 04:04:37 PM 27.7081 -97.4672 North 397 457 23,200 968 Climbing Houston Center
Thu 04:05:39 PM 27.8181 -97.4539 North 398 458 24,100 816 Climbing Houston Center
Thu 04:06:42 PM 27.9158 -97.3975 27° Northeast 397 457 24,900 432 Climbing Houston Center
Thu 04:07:44 PM 28.0197 -97.3250 32° Northeast 412 474 25,000 48 Climbing Houston Center
Thu 04:08:46 PM 28.1203 -97.2497 33° Northeast 433 498 25,000  Level Houston Center
Thu 04:09:48 PM 28.2236 -97.1722 33° Northeast 444 511 25,000 -97 Level Houston Center
Thu 04:10:50 PM 28.3297 -97.0939 33° Northeast 454 522 24,800 -532 Descending Houston Center
Thu 04:11:52 PM 28.4608 -96.9950 34° Northeast 471 542 23,900 -387 Descending Houston Center
Thu 04:12:54 PM 28.5689 -96.9133 34° Northeast 469 540 24,000 48 Climbing Houston Center
Thu 04:13:57 PM 28.6775 -96.8311 34° Northeast 469 540 24,000 -240 Level Houston Center
Thu 04:14:59 PM 28.7853 -96.7494 34° Northeast 468 539 23,500 -968 Descending Houston Center
Thu 04:16:01 PM 28.8914 -96.6681 34° Northeast 461 531 22,000 -1,694 Descending Houston Center
Thu 04:17:03 PM 29.0147 -96.5744 34° Northeast 450 518 20,000 -1,790 Descending Houston Center
Thu 04:18:05 PM 29.1139 -96.4997 33° Northeast 435 501 18,300 -1,657 Descending Houston Center
Thu 04:18:48 PM 29.1892 -96.4433 33° Northeast 425 489 17,100 -1,524 Descending Houston Center
Thu 04:19:08 PM 29.2094 -96.4261 37° Northeast 421 484 16,700 -1,800 Descending Houston Center
Thu 04:19:38 PM 29.2661 -96.3844 33° Northeast 410 472 15,600 -1,869 Descending Houston Center
Thu 04:20:09 PM 29.3028 -96.3553 35° Northeast 410 472 14,800 -1,967 Descending Houston Center
Thu 04:20:39 PM 29.3586 -96.3122 34° Northeast 394 453 13,600 -1,935 Descending Houston Center
Thu 04:21:11 PM 29.3914 -96.2861 35° Northeast 394 453 12,800 -1,475 Descending Houston Center
Thu 04:21:40 PM 29.4433 -96.2475 33° Northeast 361 415 12,100 -774 Descending Houston Center
Thu 04:22:13 PM 29.4861 -96.2142 34° Northeast 345 397 12,000 -98 Descending Houston Center
Thu 04:22:41 PM 29.5203 -96.1886 33° Northeast 333 383 12,000 -95 Level Houston Center
Thu 04:23:16 PM 29.5589 -96.1444 45° Northeast 345 397 11,900 -716 Descending Houston Center
Thu 04:23:48 PM 29.5853 -96.0903 61° Northeast 335 386 11,200 -1,161 Descending Houston Center
Thu 04:24:18 PM 29.6044 -96.0522 60° Northeast 336 387 10,700 -984 Descending Houston Center
Thu 04:24:49 PM 29.6300 -96.0011 60° Northeast 331 381 10,200 -968 Descending Houston Center
Thu 04:25:20 PM 29.6497 -95.9619 60° Northeast 312 359 9,700 -1,309 Descending Houston Center
Thu 04:25:44 PM 29.6675 -95.9272 59° Northeast 278 320 9,000 -1,645 Descending Houston Center
Thu 04:26:22 PM 29.6881 -95.8847 61° Northeast 282 325 8,000 -1,869 Descending Houston Center
Thu 04:26:45 PM 29.7050 -95.8506 60° Northeast 275 316 7,100 -1,548 Descending Houston Center
Thu 04:27:24 PM 29.7261 -95.8100 59° Northeast 273 314 6,400 -984 Descending Houston Center
Thu 04:27:46 PM 29.7461 -95.7689 61° Northeast 276 318 6,100 -387 Descending Houston Center
Thu 04:28:26 PM 29.7639 -95.7331 60° Northeast 275 316 6,000 -98 Descending Houston Center
Thu 04:28:47 PM 29.7836 -95.6947 59° Northeast 268 308 6,000  Level Houston Center
Thu 04:29:28 PM 29.8086 -95.6450 60° Northeast 266 306 6,000 88 Level Houston Center
Thu 04:29:55 PM 29.8264 -95.6103 59° Northeast 265 305 6,100  Climbing Houston Center
Thu 04:30:30 PM 29.8456 -95.5697 61° Northeast 269 310 6,000  Descending Houston Center
Thu 04:30:56 PM 29.8636 -95.5336 60° Northeast 264 304 6,100  Climbing Houston Center
Thu 04:31:32 PM 29.8833 -95.4950 59° Northeast 269 310 6,000 -98 Descending Houston Center
Thu 04:31:57 PM 29.8964 -95.4550 69° East 277 319 6,000  Level Houston Center
Thu 04:32:35 PM 29.8967 -95.4092 90° East 278 320 6,000  Level Houston Center
Thu 04:32:52 PM 29.8953 -95.3756 93° East 271 312 6,000  Level Houston Center
Thu 04:33:37 PM 29.8969 -95.3233 88° East 269 310 6,000 90 Level Houston Center
Thu 04:33:59 PM 29.8969 -95.2792 90° East 268 308 6,100  Climbing Houston Center
Thu 04:34:39 PM 29.8975 -95.2350 89° East 272 313 6,000 -765 Descending Houston Center
Thu 04:35:41 PM 29.8975 -95.1456 90° East 270 311 4,800 -1,518 Descending Houston Center
Thu 04:36:02 PM 29.8975 -95.1031 90° East 263 303 3,900 -2,032 Descending Houston Center
Thu 04:36:43 PM 29.9281 -95.0667 46° Northeast 265 305 2,700 -1,107 Descending Houston Center
Thu 04:37:45 PM 29.9800 -95.1006 331° Northwest 255 293 2,000 -677 Descending Houston Center

Login

Don't have an account? Register now (free) for customized features, flight alerts, and more!